San Clemente, CA (92672)

11:15 PM PDT on August 21, 2014 (GMT -0700)
North Ola Vista | Change Station
CLOSE
Current Station
Personal Weather Station
Location: San Clemente, CA
Elevation: 200 ft
Nearby Weather Stations
Active Advisory: Beach Hazard Statement Active Notice: Public Information Statement

Elev 200 ft 33.43 °N, 117.62 °W | Updated 29 seconds ago

Clear
Clear
68.4 °F
Feels Like 68.4 °F
N
0.0
Wind Variable Wind from West
Gusts 0.0 mph

Today
High -- | Low -- °F
--% Chance of Precip.
Yesterday
High -- | Low -- °F
Precip. -- in
6:17 AM 7:29 PM
Waning Crescent, 10% visible
Pressure 30.21 in
Visibility 7.0 miles
Clouds Clear
Dew Point 65 °F
Humidity 89%
Rainfall 0.00 in
Snow Depth Not available.
UV 0 out of 12
Pollen 4.80 out of 12
Ozone Good
Flu Activity Not available.
METAR KNXF 220556Z AUTO 00000KT 7SM CLR 20/17 A2996 RMK AO2 SLP229 T02000167 10244 20200 53008

More Conditions Fewer Conditions

Pressure 30.21 in
Visibility 7.0 miles
Clouds Clear
Dew Point 65 °F
Humidity 89%
Rainfall 0.00 in
Snow Depth Not available.
UV 0 out of 12
Pollen 4.80 out of 12
Ozone Good
Flu Activity Not available.
METAR KNXF 220556Z AUTO 00000KT 7SM CLR 20/17 A2996 RMK AO2 SLP229 T02000167 10244 20200 53008

More Conditions Fewer Conditions

10-Day Weather Forecast

Almanac

Astronomy

Aug. 21, 2014 Rise Set
Actual Time 6:17 AM PDT 7:29 PM PDT
Civil Twilight 5:51 AM PDT 7:55 PM PDT
Nautical Twilight 5:20 AM PDT 8:26 PM PDT
Astronomical Twilight 4:48 AM PDT 8:57 PM PDT
Moon 2:56 AM PDT (8/21) 4:57 PM PDT (8/21)
Length of Visible Light 14h 04m
Length of Day
13h 12m
Tomorrow will be 1m 53s shorter.
Waning Crescent, 10% of the Moon is Illuminated
Aug 22
Waning Crescent
Aug 25
New
Sep 2
First Quarter
Sep 8
Full
Sep 15
Last Quarter

Community

WunderPhotos

Upload Photos

1,746,131 photos uploaded!

Nearby

Air Quality

  Air Quality AQ Index Pollutant
Yesterday Good
OZONE
Current Good
OZONE
Friday Good
PM10
Friday Good
OZONE
Friday Good
CO
Friday Good
NO2

Snow Depth

Station Depth Elevation
Leavitt Lake 1 in 9400 ft
Leavitt Meadows 1 in 7200 ft
Monitor Pass 0 in 8350 ft
Blue Lakes 0 in 8000 ft
Forestdale Creek 0 in 8029 ft

Earthquake Activity

City Distance Mag. Time & Date
Malibu Beach, California 72 miles 3.4 10:03 AM PDT
2014-08-15
Minimum magnitude displayed is 2.5.

Coastal Water Temperatures

Place Temperature
Santa Monica Pier 72.0 °F
Los Angeles, CA 68.0 °F
La Jolla, CA 68.0 °F

Nearby Weather Stations